Terminal Aerodrome Forecast
Issued by NWS

Home | Current Version | Previous Version | Text Only | Print | Product List | Glossary On
Versions: 1 2 3 4 5 6 7 8 9 10 11 12 13 14 15 16 17 18 19 20 21 22 23
000
FTUS42 KCAE 180344 AAA
TAFDNL
TAF AMD
KDNL 180344Z 1804/1824 VRB04KT P6SM SCT025 BKN035 OVC060
     FM180600 VRB03KT P6SM SCT015 OVC025
     FM180900 VRB03KT P6SM SCT007 OVC015
     FM181600 25005KT P6SM VCSH SCT007 OVC015=

USA.gov is the U.S. government's official web portal to all federal, state and local government web resources and services.